Time;durP1;ratioP1;P1;durP2;ratioP2;P2;SDS_P1;SDS_P2;PMS_P1;PMS_P2;Temp;Humidity;BMP_temperature;BMP_pressure;BME280_temperature;BME280_humidity;BME280_pressure;Samples;Min_cycle;Max_cycle;Signal;HPM_P1;HPM_P2
2022/01/02 00:00:19;;;;;;;3.92;3.63;;;;;;;;;;2080224;28;20323;-60
2022/01/02 00:01:20;;;;;;;3.53;3.22;;;;;;;;;;2068251;28;20240;-59
2022/01/02 00:02:21;;;;;;;3.25;3.00;;;;;;;;;;2071910;28;20177;-56
2022/01/02 00:03:23;;;;;;;3.55;3.25;;;;;;;;;;2063995;28;20272;-58
2022/01/02 00:04:23;;;;;;;3.55;3.25;;;;;;;;;;2065609;28;20177;-59
2022/01/02 00:05:24;;;;;;;5.03;3.58;;;;;;;;;;2078581;28;20236;-57
2022/01/02 00:06:25;;;;;;;3.47;3.17;;;;;;;;;;2080468;28;20212;-59
2022/01/02 00:07:26;;;;;;;4.78;3.50;;;;;;;;;;2075982;28;20173;-59
2022/01/02 00:08:26;;;;;;;4.68;3.45;;;;;;;;;;2080540;28;20222;-57
2022/01/02 00:09:31;;;;;;;3.15;2.95;;;;;;;;;;2080389;28;20614;-61
2022/01/02 00:10:33;;;;;;;4.30;3.00;;;;;;;;;;2080235;28;20212;-62
2022/01/02 00:11:37;;;;;;;3.83;3.42;;;;;;;;;;2080577;28;20199;-59
2022/01/02 00:12:42;;;;;;;3.78;3.35;;;;;;;;;;2080781;28;20176;-59
2022/01/02 00:13:46;;;;;;;4.30;3.03;;;;;;;;;;2080949;28;20210;-58
2022/01/02 00:14:47;;;;;;;3.72;3.15;;;;;;;;;;2073336;28;20256;-58
2022/01/02 00:15:47;;;;;;;3.30;3.10;;;;;;;;;;2077552;28;20173;-60
2022/01/02 00:16:50;;;;;;;3.85;3.60;;;;;;;;;;2080637;28;20215;-59
2022/01/02 00:17:51;;;;;;;4.03;3.60;;;;;;;;;;2081567;28;20180;-58
2022/01/02 00:19:03;;;;;;;4.25;3.40;;;;;;;;;;2081676;28;20243;-58
2022/01/02 00:20:11;;;;;;;3.53;3.13;;;;;;;;;;2081782;28;20149;-59
2022/01/02 00:21:11;;;;;;;5.32;3.45;;;;;;;;;;2081010;28;20698;-62
2022/01/02 00:22:16;;;;;;;6.72;3.78;;;;;;;;;;2081069;28;20230;-60
2022/01/02 00:23:20;;;;;;;4.53;3.70;;;;;;;;;;2081682;28;20169;-60
2022/01/02 00:24:21;;;;;;;3.80;3.50;;;;;;;;;;2082121;28;20188;-59
2022/01/02 00:25:32;;;;;;;5.07;3.33;;;;;;;;;;2082914;28;20172;-59
2022/01/02 00:26:40;;;;;;;4.70;3.70;;;;;;;;;;2084845;28;20169;-59
2022/01/02 00:27:41;;;;;;;3.50;3.08;;;;;;;;;;2068612;28;20173;-61
2022/01/02 00:28:42;;;;;;;3.15;2.95;;;;;;;;;;2062065;28;20204;-62
2022/01/02 00:29:42;;;;;;;3.42;3.13;;;;;;;;;;2077281;28;20205;-59
2022/01/02 00:30:44;;;;;;;4.47;3.88;;;;;;;;;;2077325;28;20177;-61
2022/01/02 00:31:44;;;;;;;3.20;3.00;;;;;;;;;;2076751;28;20187;-60
2022/01/02 00:32:45;;;;;;;3.15;2.95;;;;;;;;;;2083955;28;20168;-61
2022/01/02 00:33:45;;;;;;;4.00;3.40;;;;;;;;;;2083393;28;20253;-59
2022/01/02 00:34:48;;;;;;;3.95;3.60;;;;;;;;;;2083165;28;20176;-60
2022/01/02 00:35:48;;;;;;;3.90;3.60;;;;;;;;;;2073950;28;20161;-59
2022/01/02 00:36:48;;;;;;;4.13;2.95;;;;;;;;;;2074789;28;20161;-60
2022/01/02 00:37:49;;;;;;;3.40;3.20;;;;;;;;;;2076825;28;20728;-60
2022/01/02 00:38:49;;;;;;;3.50;3.30;;;;;;;;;;2076037;28;20173;-66
2022/01/02 00:39:49;;;;;;;3.15;2.95;;;;;;;;;;2079643;28;20832;-60
2022/01/02 00:40:52;;;;;;;3.83;3.50;;;;;;;;;;2076246;28;20536;-60
2022/01/02 00:41:53;;;;;;;3.67;3.38;;;;;;;;;;2081905;28;20176;-60
2022/01/02 00:43:00;;;;;;;3.83;3.30;;;;;;;;;;2084745;28;20242;-60
2022/01/02 00:44:09;;;;;;;4.15;3.58;;;;;;;;;;2074705;28;20212;-61
2022/01/02 00:45:27;;;;;;;3.63;3.33;;;;;;;;;;2077633;28;20196;-60
2022/01/02 00:46:31;;;;;;;3.42;3.08;;;;;;;;;;2073704;28;20233;-63
2022/01/02 00:47:43;;;;;;;8.00;3.83;;;;;;;;;;2075416;28;20185;-60
2022/01/02 00:48:44;;;;;;;4.10;3.40;;;;;;;;;;2070493;28;20251;-60
2022/01/02 00:49:52;;;;;;;5.50;4.03;;;;;;;;;;2069859;28;20216;-61
2022/01/02 00:50:55;;;;;;;4.75;3.83;;;;;;;;;;2084736;28;20239;-60
2022/01/02 00:52:01;;;;;;;4.40;3.92;;;;;;;;;;2074701;28;20183;-58
2022/01/02 00:53:02;;;;;;;3.97;3.60;;;;;;;;;;2075428;28;20711;-60
2022/01/02 00:54:07;;;;;;;4.40;3.42;;;;;;;;;;2078998;28;20219;-60
2022/01/02 00:55:11;;;;;;;4.28;3.60;;;;;;;;;;2084169;28;20196;-61
2022/01/02 00:56:14;;;;;;;4.13;3.78;;;;;;;;;;2083024;28;20196;-60
2022/01/02 00:57:16;;;;;;;4.53;3.95;;;;;;;;;;2076383;28;20255;-61
2022/01/02 00:58:17;;;;;;;4.05;3.72;;;;;;;;;;2081687;28;20180;-60
2022/01/02 00:59:40;;;;;;;5.18;4.68;;;;;;;;;;2075364;28;20224;-62
2022/01/02 01:00:45;;;;;;;4.57;4.22;;;;;;;;;;2056061;28;20195;-61
2022/01/02 01:01:47;;;;;;;3.78;3.45;;;;;;;;;;2071856;28;20181;-62
2022/01/02 01:02:49;;;;;;;4.68;4.07;;;;;;;;;;2083389;28;20180;-60
2022/01/02 01:03:52;;;;;;;4.40;4.00;;;;;;;;;;2083295;28;20184;-59
2022/01/02 01:04:54;;;;;;;4.30;3.90;;;;;;;;;;2081404;28;20183;-63
2022/01/02 01:05:55;;;;;;;4.60;4.25;;;;;;;;;;2082027;28;20183;-60
2022/01/02 01:06:58;;;;;;;3.92;3.63;;;;;;;;;;2070939;28;20232;-60
2022/01/02 01:08:03;;;;;;;4.20;3.80;;;;;;;;;;2074075;28;20205;-61
2022/01/02 01:09:05;;;;;;;4.10;3.78;;;;;;;;;;2077465;28;20181;-60
2022/01/02 01:10:08;;;;;;;3.40;3.17;;;;;;;;;;2086093;28;20192;-58
2022/01/02 01:11:09;;;;;;;4.47;4.03;;;;;;;;;;2084773;28;20164;-61
2022/01/02 01:12:10;;;;;;;3.83;3.63;;;;;;;;;;2082294;28;20271;-62
2022/01/02 01:13:10;;;;;;;3.60;3.30;;;;;;;;;;2084322;28;20184;-60
2022/01/02 01:14:11;;;;;;;3.67;3.38;;;;;;;;;;2081816;28;20172;-60
2022/01/02 01:15:11;;;;;;;3.70;3.40;;;;;;;;;;2083639;28;20247;-63
2022/01/02 01:16:14;;;;;;;4.50;3.80;;;;;;;;;;2072928;28;20192;-62
2022/01/02 01:17:15;;;;;;;4.47;3.85;;;;;;;;;;2075496;28;20181;-61
2022/01/02 01:18:15;;;;;;;3.78;3.47;;;;;;;;;;2072634;28;20189;-61
2022/01/02 01:19:15;;;;;;;3.80;3.50;;;;;;;;;;2074896;28;20200;-61
2022/01/02 01:20:16;;;;;;;4.10;3.70;;;;;;;;;;2080637;28;20177;-60
2022/01/02 01:21:16;;;;;;;3.78;3.47;;;;;;;;;;2083418;28;20202;-60
2022/01/02 01:22:17;;;;;;;4.53;4.15;;;;;;;;;;2070188;28;20185;-60
2022/01/02 01:23:17;;;;;;;4.43;3.40;;;;;;;;;;2074520;28;20340;-60
2022/01/02 01:24:19;;;;;;;4.90;3.70;;;;;;;;;;2087520;28;20231;-62
2022/01/02 01:25:20;;;;;;;4.13;3.83;;;;;;;;;;2082476;28;20187;-61
2022/01/02 01:26:21;;;;;;;4.28;3.88;;;;;;;;;;2074502;28;20185;-59
2022/01/02 01:27:21;;;;;;;4.47;4.07;;;;;;;;;;2074506;28;20200;-60
2022/01/02 01:28:21;;;;;;;4.72;3.80;;;;;;;;;;2069342;28;20209;-61
2022/01/02 01:29:21;;;;;;;4.13;3.83;;;;;;;;;;2074259;28;20205;-58
2022/01/02 01:30:23;;;;;;;3.72;3.42;;;;;;;;;;2082323;28;20679;-61
2022/01/02 01:31:24;;;;;;;3.88;3.58;;;;;;;;;;2082674;28;20734;-60
2022/01/02 01:32:24;;;;;;;4.97;4.43;;;;;;;;;;2068366;28;20233;-60
2022/01/02 01:33:24;;;;;;;4.25;3.95;;;;;;;;;;2057808;28;20175;-59
2022/01/02 01:34:24;;;;;;;4.47;4.07;;;;;;;;;;2060362;28;20659;-61
2022/01/02 01:35:25;;;;;;;3.95;3.55;;;;;;;;;;2081995;28;20186;-58
2022/01/02 01:36:25;;;;;;;4.32;3.80;;;;;;;;;;2083315;28;20172;-60
2022/01/02 01:37:26;;;;;;;4.68;3.80;;;;;;;;;;2082355;28;20179;-61
2022/01/02 01:38:26;;;;;;;4.15;3.75;;;;;;;;;;2068308;28;20224;-59
2022/01/02 01:39:26;;;;;;;4.75;4.15;;;;;;;;;;2073031;28;20235;-60
2022/01/02 01:40:29;;;;;;;4.57;4.10;;;;;;;;;;2077340;28;20206;-60
2022/01/02 01:41:30;;;;;;;4.03;3.72;;;;;;;;;;2080907;28;20202;-61
2022/01/02 01:42:40;;;;;;;5.07;4.40;;;;;;;;;;2078005;28;20239;-58
2022/01/02 01:43:53;;;;;;;4.20;3.85;;;;;;;;;;2074110;28;20158;-58
2022/01/02 01:46:13;;;;;;;4.20;3.83;;;;;;;;;;2067967;28;20319;-58
2022/01/02 01:47:13;;;;;;;4.38;3.92;;;;;;;;;;2090207;28;20237;-58
2022/01/02 01:48:13;;;;;;;4.70;4.20;;;;;;;;;;2069528;28;20213;-58
2022/01/02 01:49:40;;;;;;;5.18;4.78;;;;;;;;;;2073797;28;20184;-60
2022/01/02 01:50:41;;;;;;;4.55;4.05;;;;;;;;;;2076220;28;20263;-59
2022/01/02 01:51:45;;;;;;;4.53;4.13;;;;;;;;;;2077147;28;20176;-59
2022/01/02 01:52:46;;;;;;;4.30;3.60;;;;;;;;;;2078301;28;20267;-61
2022/01/02 01:53:47;;;;;;;4.45;4.00;;;;;;;;;;2080300;28;20168;-59
2022/01/02 01:54:47;;;;;;;4.20;3.80;;;;;;;;;;2071108;28;20212;-58
2022/01/02 01:55:47;;;;;;;4.97;4.43;;;;;;;;;;2081567;28;20176;-59
2022/01/02 01:56:50;;;;;;;5.53;4.20;;;;;;;;;;2081856;28;20190;-60
2022/01/02 01:57:51;;;;;;;5.22;4.72;;;;;;;;;;2070785;28;20173;-59
2022/01/02 01:58:52;;;;;;;7.43;4.60;;;;;;;;;;2063240;28;20182;-56
2022/01/02 01:59:53;;;;;;;6.00;4.47;;;;;;;;;;2065852;28;20269;-60
2022/01/02 02:00:53;;;;;;;5.30;4.60;;;;;;;;;;2065526;28;20178;-60
2022/01/02 02:02:06;;;;;;;4.85;4.10;;;;;;;;;;2075117;28;20184;-59
2022/01/02 02:03:06;;;;;;;5.30;4.80;;;;;;;;;;2081656;28;20182;-60
2022/01/02 02:04:07;;;;;;;6.47;4.85;;;;;;;;;;2066786;28;20208;-58
2022/01/02 02:05:07;;;;;;;5.00;4.47;;;;;;;;;;2072047;28;20242;-59
2022/01/02 02:06:08;;;;;;;5.30;4.80;;;;;;;;;;2072610;28;20180;-59
2022/01/02 02:07:08;;;;;;;6.75;4.75;;;;;;;;;;2065441;28;20189;-58
2022/01/02 02:08:10;;;;;;;5.53;5.03;;;;;;;;;;2087496;28;20654;-56
2022/01/02 02:09:11;;;;;;;7.43;5.10;;;;;;;;;;2081285;28;20183;-57
2022/01/02 02:10:26;;;;;;;5.03;4.63;;;;;;;;;;2065372;28;20173;-60
2022/01/02 02:11:32;;;;;;;5.93;5.18;;;;;;;;;;2067779;28;20158;-56
2022/01/02 02:12:33;;;;;;;5.20;4.70;;;;;;;;;;2064122;28;20177;-57
2022/01/02 02:13:38;;;;;;;6.90;5.03;;;;;;;;;;2064988;28;20262;-59
2022/01/02 02:14:40;;;;;;;7.78;5.22;;;;;;;;;;2073992;28;20175;-56
2022/01/02 02:15:42;;;;;;;6.22;4.93;;;;;;;;;;2089277;28;20195;-59
2022/01/02 02:16:43;;;;;;;6.50;4.78;;;;;;;;;;2080793;28;20184;-59
2022/01/02 02:17:48;;;;;;;5.03;4.50;;;;;;;;;;2079860;28;20164;-57
2022/01/02 02:18:49;;;;;;;5.00;4.35;;;;;;;;;;2078701;28;20164;-56
2022/01/02 02:19:58;;;;;;;4.93;4.53;;;;;;;;;;2064427;28;20165;-56
2022/01/02 02:20:59;;;;;;;5.47;5.07;;;;;;;;;;2067244;28;20177;-56
2022/01/02 02:22:03;;;;;;;5.40;4.90;;;;;;;;;;2071830;28;20165;-59
2022/01/02 02:23:04;;;;;;;5.20;4.78;;;;;;;;;;2072615;28;20223;-57
2022/01/02 02:24:05;;;;;;;5.43;4.90;;;;;;;;;;2077547;28;20225;-59
2022/01/02 02:25:07;;;;;;;4.85;4.45;;;;;;;;;;2073205;28;20286;-56
2022/01/02 02:26:07;;;;;;;5.35;4.72;;;;;;;;;;2058947;28;20202;-60
2022/01/02 02:27:07;;;;;;;7.13;5.03;;;;;;;;;;2073282;28;20168;-59
2022/01/02 02:28:11;;;;;;;8.18;4.82;;;;;;;;;;2068836;28;20213;-58
2022/01/02 02:29:11;;;;;;;5.53;5.03;;;;;;;;;;2070703;28;20299;-59
2022/01/02 02:30:12;;;;;;;5.60;4.85;;;;;;;;;;2080446;28;20184;-59
2022/01/02 02:31:12;;;;;;;5.47;4.80;;;;;;;;;;2072730;28;20172;-60
2022/01/02 02:32:13;;;;;;;5.03;4.63;;;;;;;;;;2057096;28;20234;-60
2022/01/02 02:33:14;;;;;;;5.30;4.80;;;;;;;;;;2078288;28;20211;-57
2022/01/02 02:34:15;;;;;;;7.93;4.55;;;;;;;;;;2066580;28;20174;-58
2022/01/02 02:35:16;;;;;;;6.18;5.53;;;;;;;;;;2073263;28;20208;-59
2022/01/02 02:36:17;;;;;;;6.05;5.45;;;;;;;;;;2072431;28;20181;-58
2022/01/02 02:37:17;;;;;;;5.72;5.18;;;;;;;;;;2080871;28;20176;-63
2022/01/02 02:38:18;;;;;;;5.97;5.10;;;;;;;;;;2065916;28;20193;-60
2022/01/02 02:39:22;;;;;;;8.98;5.15;;;;;;;;;;2065699;28;20205;-59
2022/01/02 02:40:24;;;;;;;6.10;5.50;;;;;;;;;;2073684;28;20251;-59
2022/01/02 02:41:32;;;;;;;5.28;4.78;;;;;;;;;;2084403;28;20187;-60
2022/01/02 02:42:44;;;;;;;5.70;5.18;;;;;;;;;;2077492;28;20630;-58
2022/01/02 02:44:46;;;;;;;5.80;5.15;;;;;;;;;;2064909;28;20268;-60
2022/01/02 02:49:45;;;;;;;6.05;5.13;;;;;;;;;;2079403;28;20200;-60
2022/01/02 02:50:46;;;;;;;6.95;5.13;;;;;;;;;;2079963;28;20156;-58
2022/01/02 02:51:54;;;;;;;6.80;5.05;;;;;;;;;;2085687;28;20187;-60
2022/01/02 02:52:59;;;;;;;5.25;4.82;;;;;;;;;;2082491;28;20231;-61
2022/01/02 02:53:59;;;;;;;6.00;5.43;;;;;;;;;;2083046;28;20172;-60
2022/01/02 02:55:00;;;;;;;6.00;5.38;;;;;;;;;;2071986;28;20252;-59
2022/01/02 02:56:00;;;;;;;7.95;5.38;;;;;;;;;;2065821;28;20177;-61
2022/01/02 02:57:01;;;;;;;9.07;5.03;;;;;;;;;;2072299;28;20196;-61
2022/01/02 02:58:27;;;;;;;5.50;4.78;;;;;;;;;;2075870;28;20168;-61
2022/01/02 02:59:25;;;;;;;7.43;5.45;;;;;;;;;;2078133;28;20343;-60
2022/01/02 03:00:25;;;;;;;6.22;5.25;;;;;;;;;;2084476;28;20284;-60
2022/01/02 03:01:27;;;;;;;7.30;5.25;;;;;;;;;;2085323;28;20217;-61
2022/01/02 03:02:28;;;;;;;7.78;5.07;;;;;;;;;;2082637;28;20196;-60
2022/01/02 03:03:28;;;;;;;6.07;5.47;;;;;;;;;;2076809;28;20196;-59
2022/01/02 03:04:28;;;;;;;6.47;5.35;;;;;;;;;;2086602;28;20198;-60
2022/01/02 03:05:29;;;;;;;7.07;5.30;;;;;;;;;;2090924;28;20208;-60
2022/01/02 03:06:29;;;;;;;8.40;5.40;;;;;;;;;;2071407;28;20291;-61
2022/01/02 03:07:29;;;;;;;6.60;5.35;;;;;;;;;;2061045;28;20248;-60
2022/01/02 03:08:31;;;;;;;5.65;5.07;;;;;;;;;;2064367;28;20165;-60
2022/01/02 03:09:38;;;;;;;7.43;5.65;;;;;;;;;;2071165;28;20204;-60
2022/01/02 03:10:38;;;;;;;6.78;5.32;;;;;;;;;;2071480;28;20165;-60
2022/01/02 03:11:41;;;;;;;6.05;5.10;;;;;;;;;;2078744;28;20199;-57
2022/01/02 03:12:41;;;;;;;6.30;5.80;;;;;;;;;;2077174;28;20176;-57
2022/01/02 03:13:42;;;;;;;6.45;5.30;;;;;;;;;;2072324;28;20615;-56
2022/01/02 03:14:42;;;;;;;5.40;4.90;;;;;;;;;;2065026;28;20201;-58
2022/01/02 03:15:43;;;;;;;8.40;5.68;;;;;;;;;;2061250;28;20189;-59
2022/01/02 03:16:43;;;;;;;5.75;5.25;;;;;;;;;;2068621;28;20188;-61
2022/01/02 03:17:44;;;;;;;5.95;5.45;;;;;;;;;;2068799;28;20177;-58
2022/01/02 03:18:44;;;;;;;6.45;5.40;;;;;;;;;;2064004;28;20178;-58
2022/01/02 03:19:44;;;;;;;5.22;4.82;;;;;;;;;;2072309;28;20200;-59
2022/01/02 03:20:47;;;;;;;8.43;6.18;;;;;;;;;;2082893;28;20227;-59
2022/01/02 03:21:47;;;;;;;6.57;5.32;;;;;;;;;;2078272;28;20164;-55
2022/01/02 03:22:47;;;;;;;6.32;5.38;;;;;;;;;;2047597;28;20193;-58
2022/01/02 03:23:49;;;;;;;6.50;5.43;;;;;;;;;;2046652;28;20182;-59
2022/01/02 03:24:52;;;;;;;6.10;5.50;;;;;;;;;;2064422;28;20192;-56
2022/01/02 03:25:53;;;;;;;6.82;5.43;;;;;;;;;;2066831;28;20213;-59
2022/01/02 03:26:55;;;;;;;8.18;5.32;;;;;;;;;;2065074;28;20220;-59
2022/01/02 03:27:56;;;;;;;6.25;5.72;;;;;;;;;;2065003;28;20202;-60
2022/01/02 03:28:57;;;;;;;7.65;5.93;;;;;;;;;;2079198;28;20179;-55
2022/01/02 03:29:57;;;;;;;10.45;5.95;;;;;;;;;;2065489;28;20185;-58
2022/01/02 03:30:57;;;;;;;7.40;5.53;;;;;;;;;;2068174;28;20174;-57
2022/01/02 03:32:00;;;;;;;5.82;5.32;;;;;;;;;;2079361;28;20199;-59
2022/01/02 03:33:00;;;;;;;5.40;4.90;;;;;;;;;;2072370;28;20191;-58
2022/01/02 03:34:01;;;;;;;6.03;5.53;;;;;;;;;;2080585;28;20249;-59
2022/01/02 03:35:01;;;;;;;6.07;5.50;;;;;;;;;;2075726;28;20183;-58
2022/01/02 03:36:02;;;;;;;7.68;6.18;;;;;;;;;;2071695;28;20234;-58
2022/01/02 03:37:02;;;;;;;5.18;4.68;;;;;;;;;;2066810;28;20692;-59
2022/01/02 03:38:04;;;;;;;7.50;5.50;;;;;;;;;;2072478;28;20223;-58
2022/01/02 03:39:05;;;;;;;7.75;5.78;;;;;;;;;;2066083;28;20282;-55
2022/01/02 03:40:07;;;;;;;6.80;5.55;;;;;;;;;;2081412;28;20230;-57
2022/01/02 03:41:07;;;;;;;8.75;6.22;;;;;;;;;;2072514;28;20272;-57
2022/01/02 03:42:08;;;;;;;7.05;5.13;;;;;;;;;;2064962;28;20181;-59
2022/01/02 03:43:09;;;;;;;7.70;5.25;;;;;;;;;;2072278;28;20176;-58
2022/01/02 03:44:09;;;;;;;6.55;4.97;;;;;;;;;;2063880;28;20237;-57
2022/01/02 03:45:10;;;;;;;8.88;5.95;;;;;;;;;;2064697;28;20186;-59
2022/01/02 03:46:11;;;;;;;7.03;5.82;;;;;;;;;;2071687;28;20157;-57
2022/01/02 03:47:11;;;;;;;6.10;5.30;;;;;;;;;;2072835;28;20288;-56
2022/01/02 03:48:12;;;;;;;8.35;5.13;;;;;;;;;;2071380;28;20205;-58
2022/01/02 03:49:13;;;;;;;5.72;5.07;;;;;;;;;;2080954;28;20188;-58
2022/01/02 03:50:14;;;;;;;8.57;5.10;;;;;;;;;;2081320;28;20180;-59
2022/01/02 03:51:15;;;;;;;6.50;5.22;;;;;;;;;;2060918;28;20297;-62
2022/01/02 03:52:15;;;;;;;9.60;4.90;;;;;;;;;;2064427;28;20182;-61
2022/01/02 03:53:16;;;;;;;5.45;4.97;;;;;;;;;;2081490;28;20180;-59
2022/01/02 03:54:16;;;;;;;7.30;5.00;;;;;;;;;;2078889;28;20172;-58
2022/01/02 03:55:16;;;;;;;7.00;5.35;;;;;;;;;;2081982;28;20190;-59
2022/01/02 03:56:16;;;;;;;8.88;5.55;;;;;;;;;;2072538;28;20185;-60
2022/01/02 03:57:17;;;;;;;5.85;5.35;;;;;;;;;;2074357;28;20585;-59
2022/01/02 03:58:17;;;;;;;7.28;5.50;;;;;;;;;;2078348;28;20188;-59
2022/01/02 03:59:17;;;;;;;6.97;5.22;;;;;;;;;;2064485;28;20773;-59
2022/01/02 04:00:21;;;;;;;8.00;5.90;;;;;;;;;;2073463;28;20184;-57
2022/01/02 04:01:21;;;;;;;9.50;5.60;;;;;;;;;;2074431;28;20185;-60
2022/01/02 04:02:21;;;;;;;7.68;5.43;;;;;;;;;;2074758;28;20609;-58
2022/01/02 04:03:22;;;;;;;7.90;5.35;;;;;;;;;;2084728;28;20171;-59
2022/01/02 04:04:22;;;;;;;5.72;5.10;;;;;;;;;;2077653;28;20188;-59
2022/01/02 04:05:22;;;;;;;6.10;5.07;;;;;;;;;;2082711;28;20919;-60
2022/01/02 04:06:23;;;;;;;8.18;5.43;;;;;;;;;;2068857;28;20235;-58
2022/01/02 04:07:24;;;;;;;6.20;5.60;;;;;;;;;;2066758;28;20189;-57
2022/01/02 04:08:24;;;;;;;7.50;5.70;;;;;;;;;;2069485;28;20201;-57
2022/01/02 04:09:25;;;;;;;6.95;5.90;;;;;;;;;;2073034;28;20204;-60
2022/01/02 04:10:26;;;;;;;7.07;6.28;;;;;;;;;;2082971;28;20180;-57
2022/01/02 04:11:29;;;;;;;9.43;5.90;;;;;;;;;;2066141;28;20177;-59
2022/01/02 04:12:30;;;;;;;6.53;5.65;;;;;;;;;;2054283;28;20338;-60
2022/01/02 04:13:30;;;;;;;7.13;5.85;;;;;;;;;;2066926;28;20290;-59
2022/01/02 04:14:30;;;;;;;8.05;5.57;;;;;;;;;;2074732;28;20173;-57
2022/01/02 04:15:31;;;;;;;8.52;6.65;;;;;;;;;;2083888;28;20182;-59
2022/01/02 04:16:31;;;;;;;6.55;5.50;;;;;;;;;;2083737;28;20168;-58
2022/01/02 04:17:32;;;;;;;7.65;5.20;;;;;;;;;;2085729;28;20180;-59
2022/01/02 04:18:33;;;;;;;9.13;6.00;;;;;;;;;;2077332;28;20192;-60
2022/01/02 04:19:33;;;;;;;9.02;6.22;;;;;;;;;;2061057;28;20297;-59
2022/01/02 04:20:34;;;;;;;7.10;5.35;;;;;;;;;;2069182;28;20173;-58
2022/01/02 04:21:34;;;;;;;5.85;5.28;;;;;;;;;;2069172;28;20173;-61
2022/01/02 04:22:34;;;;;;;6.68;5.55;;;;;;;;;;2076722;28;20208;-59
2022/01/02 04:23:37;;;;;;;6.82;6.05;;;;;;;;;;2078341;28;20173;-60
2022/01/02 04:24:37;;;;;;;8.80;6.68;;;;;;;;;;2075945;28;20186;-59
2022/01/02 04:25:37;;;;;;;7.47;5.80;;;;;;;;;;2083714;28;20275;-59
2022/01/02 04:26:40;;;;;;;7.43;6.07;;;;;;;;;;2075690;28;20264;-58
2022/01/02 04:27:40;;;;;;;7.95;5.60;;;;;;;;;;2071908;28;20220;-61
2022/01/02 04:28:40;;;;;;;6.00;5.50;;;;;;;;;;2076153;28;20205;-59
2022/01/02 04:29:40;;;;;;;7.60;5.68;;;;;;;;;;2079611;28;20223;-59
2022/01/02 04:30:41;;;;;;;9.73;5.75;;;;;;;;;;2084363;28;20262;-59
2022/01/02 04:31:41;;;;;;;9.38;5.90;;;;;;;;;;2072074;28;20792;-58
2022/01/02 04:32:42;;;;;;;6.88;6.18;;;;;;;;;;2076051;28;20188;-59
2022/01/02 04:33:42;;;;;;;7.97;6.00;;;;;;;;;;2074326;28;20188;-59
2022/01/02 04:34:42;;;;;;;13.05;6.75;;;;;;;;;;2076445;28;20271;-59
2022/01/02 04:35:42;;;;;;;9.85;6.43;;;;;;;;;;2078510;28;20502;-57
2022/01/02 04:36:44;;;;;;;9.85;5.70;;;;;;;;;;2074851;28;20742;-60
2022/01/02 04:37:46;;;;;;;8.32;6.32;;;;;;;;;;2074388;28;20243;-60
2022/01/02 04:38:47;;;;;;;7.22;6.00;;;;;;;;;;2071607;28;20183;-61
2022/01/02 04:39:47;;;;;;;10.32;5.90;;;;;;;;;;2074318;28;20295;-59
2022/01/02 04:40:48;;;;;;;7.13;5.47;;;;;;;;;;2083184;28;20179;-59
2022/01/02 04:41:48;;;;;;;11.05;6.25;;;;;;;;;;2082229;28;20199;-60
2022/01/02 04:42:49;;;;;;;9.25;5.93;;;;;;;;;;2083639;28;20198;-59
2022/01/02 04:43:49;;;;;;;13.40;6.28;;;;;;;;;;2075786;28;20703;-60
2022/01/02 04:44:50;;;;;;;10.27;6.00;;;;;;;;;;2083110;28;20199;-59
2022/01/02 04:45:50;;;;;;;7.30;5.60;;;;;;;;;;2083461;28;20184;-59
2022/01/02 04:46:50;;;;;;;8.63;5.55;;;;;;;;;;2074839;28;20260;-59
2022/01/02 04:47:51;;;;;;;6.22;5.57;;;;;;;;;;2074622;28;20251;-59
2022/01/02 04:48:52;;;;;;;8.35;5.88;;;;;;;;;;2074769;28;20172;-56
2022/01/02 04:49:53;;;;;;;8.63;5.82;;;;;;;;;;2076251;28;20559;-59
2022/01/02 04:50:53;;;;;;;8.85;5.82;;;;;;;;;;2076251;28;20183;-59
2022/01/02 04:51:54;;;;;;;10.27;5.90;;;;;;;;;;2084233;28;20200;-59
2022/01/02 04:52:55;;;;;;;7.60;5.20;;;;;;;;;;2075890;28;20248;-59
2022/01/02 04:53:55;;;;;;;6.60;5.55;;;;;;;;;;2075652;28;20184;-60
2022/01/02 04:54:56;;;;;;;6.07;5.35;;;;;;;;;;2076113;28;20173;-61
2022/01/02 04:55:56;;;;;;;10.60;5.97;;;;;;;;;;2075259;28;20177;-57
2022/01/02 04:56:57;;;;;;;5.55;4.97;;;;;;;;;;2070547;28;20184;-60
2022/01/02 04:57:57;;;;;;;8.23;5.72;;;;;;;;;;2067567;28;20272;-60
2022/01/02 04:58:58;;;;;;;9.02;5.50;;;;;;;;;;2075485;28;20566;-60
2022/01/02 04:59:58;;;;;;;10.18;5.88;;;;;;;;;;2074768;28;20253;-60
2022/01/02 05:00:58;;;;;;;10.15;5.32;;;;;;;;;;2068719;28;20737;-62
2022/01/02 05:01:59;;;;;;;7.72;6.07;;;;;;;;;;2065149;28;20174;-61
2022/01/02 05:02:59;;;;;;;7.35;5.72;;;;;;;;;;2076252;28;20181;-61
2022/01/02 05:03:59;;;;;;;10.32;5.68;;;;;;;;;;2084046;28;20172;-62
2022/01/02 05:05:00;;;;;;;9.05;5.45;;;;;;;;;;2076841;28;20165;-60
2022/01/02 05:06:00;;;;;;;11.10;6.63;;;;;;;;;;2070947;28;20189;-60
2022/01/02 05:07:00;;;;;;;10.30;5.55;;;;;;;;;;2051558;28;20179;-61
2022/01/02 05:08:01;;;;;;;10.45;6.07;;;;;;;;;;2059008;28;20324;-60
2022/01/02 05:09:01;;;;;;;8.55;6.53;;;;;;;;;;2076920;28;20191;-62
2022/01/02 05:10:03;;;;;;;6.97;6.00;;;;;;;;;;2075748;28;20212;-60
2022/01/02 05:11:04;;;;;;;12.77;6.00;;;;;;;;;;2068667;28;20684;-58
2022/01/02 05:12:05;;;;;;;12.00;6.35;;;;;;;;;;2065280;28;20181;-59
2022/01/02 05:13:05;;;;;;;7.53;6.00;;;;;;;;;;2068389;28;20708;-60
2022/01/02 05:14:05;;;;;;;10.50;6.15;;;;;;;;;;2076232;28;20247;-57
2022/01/02 05:15:06;;;;;;;9.18;6.35;;;;;;;;;;2084152;28;20171;-57
2022/01/02 05:16:06;;;;;;;7.22;6.10;;;;;;;;;;2076252;28;20185;-59
2022/01/02 05:17:07;;;;;;;10.23;6.05;;;;;;;;;;2064976;28;20174;-57
2022/01/02 05:18:07;;;;;;;7.65;5.63;;;;;;;;;;2076428;28;20703;-59
2022/01/02 05:19:07;;;;;;;7.88;5.65;;;;;;;;;;2076031;28;20192;-60
2022/01/02 05:20:08;;;;;;;7.13;6.25;;;;;;;;;;2072025;28;20658;-60
2022/01/02 05:21:09;;;;;;;8.77;5.88;;;;;;;;;;2075049;28;20177;-60
2022/01/02 05:22:10;;;;;;;13.52;6.80;;;;;;;;;;2083082;28;20172;-60
2022/01/02 05:23:10;;;;;;;7.47;6.03;;;;;;;;;;2066791;28;20320;-58
2022/01/02 05:24:12;;;;;;;7.63;5.10;;;;;;;;;;2074064;28;20180;-58
2022/01/02 05:25:15;;;;;;;10.85;6.20;;;;;;;;;;2081176;28;20184;-61
2022/01/02 05:26:18;;;;;;;6.50;5.13;;;;;;;;;;2081423;28;20184;-60
2022/01/02 05:27:19;;;;;;;12.57;5.78;;;;;;;;;;2068249;28;20269;-60
2022/01/02 05:28:19;;;;;;;9.65;5.13;;;;;;;;;;2066200;28;20698;-56
2022/01/02 05:29:19;;;;;;;7.18;5.40;;;;;;;;;;2074129;28;20219;-59
2022/01/02 05:30:19;;;;;;;7.50;5.30;;;;;;;;;;2083232;28;20165;-58
2022/01/02 05:31:21;;;;;;;7.90;5.47;;;;;;;;;;2068520;28;20177;-59
2022/01/02 05:32:21;;;;;;;7.95;5.35;;;;;;;;;;2073370;28;20200;-58
2022/01/02 05:33:22;;;;;;;9.65;5.57;;;;;;;;;;2078483;28;20668;-60
2022/01/02 05:34:23;;;;;;;11.52;5.60;;;;;;;;;;2086615;28;20176;-60
2022/01/02 05:35:23;;;;;;;9.20;5.13;;;;;;;;;;2068793;28;20269;-59
2022/01/02 05:36:24;;;;;;;7.63;5.43;;;;;;;;;;2055867;28;20568;-61
2022/01/02 05:37:25;;;;;;;9.70;5.60;;;;;;;;;;2071293;28;20166;-59
2022/01/02 05:38:25;;;;;;;7.03;5.10;;;;;;;;;;2076564;28;20220;-60
2022/01/02 05:39:25;;;;;;;7.15;4.90;;;;;;;;;;2074449;28;20205;-56
2022/01/02 05:40:31;;;;;;;10.30;5.07;;;;;;;;;;2065727;28;20181;-58
2022/01/02 05:41:33;;;;;;;8.55;5.22;;;;;;;;;;2066894;28;20253;-61
2022/01/02 05:42:34;;;;;;;7.72;4.95;;;;;;;;;;2072423;28;20173;-60
2022/01/02 05:43:34;;;;;;;13.38;6.00;;;;;;;;;;2078181;28;20180;-60
2022/01/02 05:44:35;;;;;;;10.50;5.80;;;;;;;;;;2081832;28;20207;-60
2022/01/02 05:45:35;;;;;;;8.50;4.85;;;;;;;;;;2080297;28;20192;-61
2022/01/02 05:46:36;;;;;;;7.40;4.97;;;;;;;;;;2073149;28;20207;-61
2022/01/02 05:47:37;;;;;;;7.28;5.05;;;;;;;;;;2065242;28;20793;-60
2022/01/02 05:48:38;;;;;;;9.68;5.40;;;;;;;;;;2073747;28;20173;-59
2022/01/02 05:49:38;;;;;;;8.13;5.40;;;;;;;;;;2073623;28;20207;-60
2022/01/02 05:50:38;;;;;;;11.55;5.72;;;;;;;;;;2073140;28;20169;-59
2022/01/02 05:51:39;;;;;;;11.93;5.88;;;;;;;;;;2065957;28;20230;-60
2022/01/02 05:52:39;;;;;;;8.55;5.53;;;;;;;;;;2061061;28;20186;-60
2022/01/02 05:53:39;;;;;;;9.93;6.18;;;;;;;;;;2065227;28;20194;-58
2022/01/02 05:54:40;;;;;;;11.25;5.70;;;;;;;;;;2072820;28;20200;-58
2022/01/02 05:55:40;;;;;;;10.60;5.35;;;;;;;;;;2081117;28;20707;-60
2022/01/02 05:56:40;;;;;;;11.27;5.47;;;;;;;;;;2081439;28;20184;-58
2022/01/02 05:57:41;;;;;;;8.13;5.60;;;;;;;;;;2081610;28;20255;-58
2022/01/02 05:58:42;;;;;;;11.35;6.70;;;;;;;;;;2074382;28;20641;-60
2022/01/02 05:59:43;;;;;;;11.57;5.93;;;;;;;;;;2075574;28;20189;-59
2022/01/02 06:00:44;;;;;;;11.63;5.50;;;;;;;;;;2071745;28;20177;-60
2022/01/02 06:01:44;;;;;;;8.65;5.57;;;;;;;;;;2065098;28;20755;-60
2022/01/02 06:02:45;;;;;;;9.13;5.70;;;;;;;;;;2071584;28;20230;-60
2022/01/02 06:03:46;;;;;;;10.02;6.63;;;;;;;;;;2069955;28;20640;-59
2022/01/02 06:04:46;;;;;;;8.77;5.80;;;;;;;;;;2080329;28;20184;-60
2022/01/02 06:05:47;;;;;;;11.40;6.95;;;;;;;;;;2069748;28;20197;-60
2022/01/02 06:06:48;;;;;;;12.77;7.10;;;;;;;;;;2071257;28;20285;-59
2022/01/02 06:07:50;;;;;;;11.25;6.40;;;;;;;;;;2072713;28;20173;-56
2022/01/02 06:08:50;;;;;;;11.07;6.40;;;;;;;;;;2070182;28;20686;-59
2022/01/02 06:09:50;;;;;;;9.98;5.40;;;;;;;;;;2066632;28;20178;-60
2022/01/02 06:10:51;;;;;;;10.98;5.85;;;;;;;;;;2056937;28;20269;-61
2022/01/02 06:11:51;;;;;;;11.70;6.47;;;;;;;;;;2072412;28;20185;-60
2022/01/02 06:12:53;;;;;;;8.10;5.75;;;;;;;;;;2080412;28;20245;-61
2022/01/02 06:13:55;;;;;;;11.93;6.70;;;;;;;;;;2070683;28;20255;-59
2022/01/02 06:14:58;;;;;;;7.88;5.97;;;;;;;;;;2070871;28;20169;-60